createdAt,value
2022-08-09T00:07:54.414Z,93.7
2022-08-09T00:19:53.484Z,94.4
2022-08-09T00:31:59.578Z,95.6
2022-08-09T00:44:15.692Z,96.1
2022-08-09T00:56:04.226Z,96.7
2022-08-09T01:08:01.032Z,97.7
2022-08-09T01:20:02.386Z,98.3
2022-08-09T01:32:31.431Z,99.1
2022-08-09T01:43:53.474Z,99.7
2022-08-09T01:55:53.492Z,99.9
2022-08-09T02:08:40.945Z,99.9
2022-08-09T02:19:53.478Z,99.9
2022-08-09T02:31:53.449Z,99.9
2022-08-09T02:43:55.473Z,99.9
2022-08-09T02:55:58.280Z,99.9
2022-08-09T03:07:55.118Z,99.9
2022-08-09T03:20:00.471Z,99.9
2022-08-09T03:32:00.574Z,99.9
2022-08-09T03:44:07.800Z,99.9
2022-08-09T03:55:53.448Z,99.9
2022-08-09T04:07:56.767Z,99.9
2022-08-09T04:19:55.955Z,99.9
2022-08-09T04:31:53.423Z,99.9
2022-08-09T04:44:05.693Z,99.9
2022-08-09T04:55:58.029Z,99.9
2022-08-09T05:07:53.468Z,99.9
2022-08-09T05:19:56.729Z,99.9
2022-08-09T05:31:56.879Z,99.9
2022-08-09T05:43:53.460Z,99.9
2022-08-09T05:55:53.472Z,99.9
2022-08-09T06:08:05.348Z,57.6
2022-08-09T06:19:54.586Z,59.4
2022-08-09T06:32:18.372Z,57.2
2022-08-09T06:43:53.457Z,57.4
2022-08-09T06:55:53.444Z,56.1
2022-08-09T07:08:00.331Z,52.2
2022-08-09T07:19:55.694Z,51.1
2022-08-09T07:31:53.477Z,49.2
2022-08-09T07:43:56.327Z,47.7
2022-08-09T07:56:03.235Z,46.8
2022-08-09T08:08:44.650Z,46.1
2022-08-09T08:19:53.467Z,43.9
2022-08-09T08:32:03.182Z,45.2
2022-08-09T08:43:53.461Z,43.4
2022-08-09T08:55:53.928Z,45.7
2022-08-09T09:07:53.449Z,45.4
2022-08-09T09:19:53.481Z,44.1
2022-08-09T09:32:06.425Z,44.2
2022-08-09T09:44:11.670Z,42.4
2022-08-09T09:55:57.573Z,42.5
2022-08-09T10:08:10.855Z,39.1
2022-08-09T10:19:57.241Z,41.2
2022-08-09T10:32:37.586Z,37.2
2022-08-09T10:44:02.016Z,36.5
2022-08-09T10:55:58.477Z,34.5
2022-08-09T11:07:58.418Z,34.7
2022-08-09T11:20:10.636Z,33.1
2022-08-09T11:31:54.998Z,34.7
2022-08-09T11:43:53.431Z,37.5
2022-08-09T11:56:02.834Z,34.0
2022-08-09T12:07:54.846Z,34.8
2022-08-09T12:19:53.659Z,32.1
2022-08-09T12:31:58.963Z,33.5
2022-08-09T12:44:06.883Z,30.9
2022-08-09T12:56:15.639Z,32.7
2022-08-09T13:07:53.454Z,33.4
2022-08-09T13:20:10.009Z,37.0
2022-08-09T13:32:15.357Z,31.9
2022-08-09T13:43:53.468Z,31.7
2022-08-09T13:55:54.044Z,30.4
2022-08-09T14:07:53.451Z,32.2
2022-08-09T14:19:53.493Z,35.1
2022-08-09T14:31:54.241Z,29.4
2022-08-09T14:43:53.959Z,30.9
2022-08-09T14:55:53.472Z,30.1
2022-08-09T15:07:56.362Z,29.3
2022-08-09T15:19:59.172Z,30.0
2022-08-09T15:31:53.451Z,31.0
2022-08-09T15:43:53.459Z,29.4
2022-08-09T15:56:04.631Z,31.1
2022-08-09T16:07:53.464Z,32.0
2022-08-09T16:20:04.092Z,32.2
2022-08-09T16:32:18.709Z,32.0
2022-08-09T16:43:53.472Z,32.5
2022-08-09T16:55:59.819Z,33.0
2022-08-09T17:08:45.078Z,33.6
2022-08-09T17:20:28.208Z,34.5
2022-08-09T17:31:53.470Z,35.6
2022-08-09T17:44:38.419Z,38.1
2022-08-09T17:55:59.707Z,38.7
2022-08-09T18:07:53.463Z,40.0
2022-08-09T18:20:55.190Z,39.4
2022-08-09T18:31:55.681Z,40.7
2022-08-09T18:43:53.674Z,42.8
2022-08-09T18:55:56.883Z,43.9
2022-08-09T19:07:59.357Z,44.1
2022-08-09T19:20:00.902Z,44.7
2022-08-09T19:31:53.449Z,44.5
2022-08-09T19:44:00.321Z,45.6
2022-08-09T19:56:02.973Z,45.4
2022-08-09T20:07:58.915Z,47.8
2022-08-09T20:19:54.667Z,47.5
2022-08-09T20:32:30.228Z,47.5
2022-08-09T20:43:58.129Z,48.4
2022-08-09T20:56:02.558Z,49.3
2022-08-09T21:07:56.211Z,50.4
2022-08-09T21:20:17.207Z,50.6
2022-08-09T21:31:53.465Z,51.5
2022-08-09T21:43:57.682Z,52.3
2022-08-09T21:55:53.468Z,52.7
2022-08-09T22:07:54.170Z,53.7
2022-08-09T22:19:58.416Z,54.0
2022-08-09T22:31:57.454Z,54.6
2022-08-09T22:44:03.442Z,55.0
2022-08-09T22:56:29.815Z,55.5
2022-08-09T23:08:21.750Z,56.1
2022-08-09T23:20:06.956Z,56.7
2022-08-09T23:31:54.508Z,56.8
2022-08-09T23:43:54.244Z,57.1
2022-08-09T23:55:54.491Z,56.8
